sensor_id;sensor_type;location;lat;lon;timestamp;pressure;altitude;pressure_sealevel;temperature;humidity
8298;BME280;4187;42.778;23.242;2023-05-20T00:01:06;95612.97;;;11.88;100.00
8298;BME280;4187;42.778;23.242;2023-05-20T00:03:33;95581.53;;;11.66;100.00
8298;BME280;4187;42.778;23.242;2023-05-20T00:05:59;95610.03;;;11.81;100.00
8298;BME280;4187;42.778;23.242;2023-05-20T00:08:26;95601.56;;;11.68;100.00
8298;BME280;4187;42.778;23.242;2023-05-20T00:10:53;95607.44;;;11.62;100.00
8298;BME280;4187;42.778;23.242;2023-05-20T00:13:21;95603.84;;;11.54;100.00
8298;BME280;4187;42.778;23.242;2023-05-20T00:15:50;95597.88;;;11.42;100.00
8298;BME280;4187;42.778;23.242;2023-05-20T00:18:17;95597.06;;;11.32;100.00
8298;BME280;4187;42.778;23.242;2023-05-20T00:20:44;95595.56;;;11.29;100.00
8298;BME280;4187;42.778;23.242;2023-05-20T00:23:11;95584.03;;;11.21;100.00
8298;BME280;4187;42.778;23.242;2023-05-20T00:25:37;95587.34;;;11.32;100.00
8298;BME280;4187;42.778;23.242;2023-05-20T00:28:05;95575.53;;;11.27;100.00
8298;BME280;4187;42.778;23.242;2023-05-20T00:30:33;95588.59;;;11.38;100.00
8298;BME280;4187;42.778;23.242;2023-05-20T00:33:00;95584.28;;;11.37;100.00
8298;BME280;4187;42.778;23.242;2023-05-20T00:35:27;95584.28;;;11.37;100.00
8298;BME280;4187;42.778;23.242;2023-05-20T00:37:54;95582.22;;;11.21;100.00
8298;BME280;4187;42.778;23.242;2023-05-20T00:40:21;95587.22;;;11.15;100.00
8298;BME280;4187;42.778;23.242;2023-05-20T00:42:49;95586.53;;;11.13;100.00
8298;BME280;4187;42.778;23.242;2023-05-20T00:45:16;95586.94;;;11.18;100.00
8298;BME280;4187;42.778;23.242;2023-05-20T00:47:44;95591.13;;;11.11;100.00
8298;BME280;4187;42.778;23.242;2023-05-20T00:50:11;95578.75;;;11.02;100.00
8298;BME280;4187;42.778;23.242;2023-05-20T00:52:38;95575.84;;;10.86;100.00
8298;BME280;4187;42.778;23.242;2023-05-20T00:55:06;95572.78;;;10.80;100.00
8298;BME280;4187;42.778;23.242;2023-05-20T00:57:33;95578.06;;;10.80;100.00
8298;BME280;4187;42.778;23.242;2023-05-20T01:00:00;95565.69;;;10.71;100.00
8298;BME280;4187;42.778;23.242;2023-05-20T01:02:27;95578.19;;;10.79;100.00
8298;BME280;4187;42.778;23.242;2023-05-20T01:04:56;95576.13;;;10.82;100.00
8298;BME280;4187;42.778;23.242;2023-05-20T01:07:23;95583.63;;;10.77;100.00
8298;BME280;4187;42.778;23.242;2023-05-20T01:09:50;95579.31;;;10.76;100.00
8298;BME280;4187;42.778;23.242;2023-05-20T01:12:22;95578.75;;;10.63;100.00
8298;BME280;4187;42.778;23.242;2023-05-20T01:14:53;95577.91;;;10.53;100.00
8298;BME280;4187;42.778;23.242;2023-05-20T01:17:25;95580.09;;;10.39;100.00
8298;BME280;4187;42.778;23.242;2023-05-20T01:19:54;95572.19;;;10.39;100.00
8298;BME280;4187;42.778;23.242;2023-05-20T01:22:25;95580.94;;;10.39;100.00
8298;BME280;4187;42.778;23.242;2023-05-20T01:24:52;95579.28;;;10.48;100.00
8298;BME280;4187;42.778;23.242;2023-05-20T01:27:20;95571.34;;;10.38;100.00
8298;BME280;4187;42.778;23.242;2023-05-20T01:29:49;95581.09;;;10.47;100.00
8298;BME280;4187;42.778;23.242;2023-05-20T01:32:20;95576.22;;;10.52;100.00
8298;BME280;4187;42.778;23.242;2023-05-20T01:34:49;95577.38;;;10.59;100.00
8298;BME280;4187;42.778;23.242;2023-05-20T01:37:17;95575.16;;;10.64;100.00
8298;BME280;4187;42.778;23.242;2023-05-20T01:39:48;95575.41;;;10.71;100.00
8298;BME280;4187;42.778;23.242;2023-05-20T01:42:16;95568.06;;;10.65;100.00
8298;BME280;4187;42.778;23.242;2023-05-20T01:44:43;95577.78;;;10.74;100.00
8298;BME280;4187;42.778;23.242;2023-05-20T01:47:10;95572.09;;;10.78;100.00
8298;BME280;4187;42.778;23.242;2023-05-20T01:49:37;95566.25;;;10.75;100.00
8298;BME280;4187;42.778;23.242;2023-05-20T01:52:04;95570.53;;;10.76;100.00
8298;BME280;4187;42.778;23.242;2023-05-20T01:54:31;95577.50;;;10.77;100.00
8298;BME280;4187;42.778;23.242;2023-05-20T01:56:59;95582.94;;;10.75;100.00
8298;BME280;4187;42.778;23.242;2023-05-20T01:59:27;95561.22;;;10.62;100.00
8298;BME280;4187;42.778;23.242;2023-05-20T02:01:54;95572.09;;;10.78;100.00
8298;BME280;4187;42.778;23.242;2023-05-20T02:04:21;95571.25;;;10.78;100.00
8298;BME280;4187;42.778;23.242;2023-05-20T02:06:47;95558.88;;;10.69;100.00
8298;BME280;4187;42.778;23.242;2023-05-20T02:09:14;95562.63;;;10.76;100.00
8298;BME280;4187;42.778;23.242;2023-05-20T02:11:41;95566.69;;;10.70;100.00
8298;BME280;4187;42.778;23.242;2023-05-20T02:14:09;95555.13;;;10.71;100.00
8298;BME280;4187;42.778;23.242;2023-05-20T02:16:36;95553.19;;;10.73;100.00
8298;BME280;4187;42.778;23.242;2023-05-20T02:19:03;95556.13;;;10.70;100.00
8298;BME280;4187;42.778;23.242;2023-05-20T02:21:29;95546.81;;;10.66;100.00
8298;BME280;4187;42.778;23.242;2023-05-20T02:23:56;95551.66;;;10.71;100.00
8298;BME280;4187;42.778;23.242;2023-05-20T02:26:23;95549.72;;;10.63;100.00
8298;BME280;4187;42.778;23.242;2023-05-20T02:28:50;95548.03;;;10.62;100.00
8298;BME280;4187;42.778;23.242;2023-05-20T02:31:18;95558.19;;;10.57;100.00
8298;BME280;4187;42.778;23.242;2023-05-20T02:33:45;95550.25;;;10.29;100.00
8298;BME280;4187;42.778;23.242;2023-05-20T02:36:12;95551.00;;;10.10;100.00
8298;BME280;4187;42.778;23.242;2023-05-20T02:38:39;95556.38;;;9.99;100.00
8298;BME280;4187;42.778;23.242;2023-05-20T02:41:06;95560.91;;;9.87;100.00
8298;BME280;4187;42.778;23.242;2023-05-20T02:43:33;95571.84;;;9.73;100.00
8298;BME280;4187;42.778;23.242;2023-05-20T02:46:00;95560.22;;;9.76;100.00
8298;BME280;4187;42.778;23.242;2023-05-20T02:48:29;95563.31;;;9.60;100.00
8298;BME280;4187;42.778;23.242;2023-05-20T02:50:57;95568.94;;;9.46;100.00
8298;BME280;4187;42.778;23.242;2023-05-20T02:53:24;95561.84;;;9.46;100.00
8298;BME280;4187;42.778;23.242;2023-05-20T02:55:51;95565.22;;;9.48;100.00
8298;BME280;4187;42.778;23.242;2023-05-20T02:58:18;95560.31;;;9.44;100.00
8298;BME280;4187;42.778;23.242;2023-05-20T03:00:50;95566.75;;;9.51;100.00
8298;BME280;4187;42.778;23.242;2023-05-20T03:03:17;95562.03;;;9.54;100.00
8298;BME280;4187;42.778;23.242;2023-05-20T03:05:45;95569.50;;;9.49;100.00
8298;BME280;4187;42.778;23.242;2023-05-20T03:08:12;95576.47;;;9.60;100.00
8298;BME280;4187;42.778;23.242;2023-05-20T03:10:39;95587.47;;;9.65;100.00
8298;BME280;4187;42.778;23.242;2023-05-20T03:13:07;95579.97;;;9.60;100.00
8298;BME280;4187;42.778;23.242;2023-05-20T03:15:35;95587.59;;;9.63;100.00
8298;BME280;4187;42.778;23.242;2023-05-20T03:18:02;95596.19;;;9.66;100.00
8298;BME280;4187;42.778;23.242;2023-05-20T03:20:29;95597.88;;;9.67;100.00
8298;BME280;4187;42.778;23.242;2023-05-20T03:22:58;95581.22;;;9.66;100.00
8298;BME280;4187;42.778;23.242;2023-05-20T03:25:25;95599.00;;;9.74;100.00
8298;BME280;4187;42.778;23.242;2023-05-20T03:27:52;95601.78;;;9.72;100.00
8298;BME280;4187;42.778;23.242;2023-05-20T03:30:19;95593.88;;;9.72;100.00
8298;BME280;4187;42.778;23.242;2023-05-20T03:32:46;95530.06;;;9.38;100.00
8298;BME280;4187;42.778;23.242;2023-05-20T03:35:13;95603.66;;;9.81;100.00
8298;BME280;4187;42.778;23.242;2023-05-20T03:37:40;95598.09;;;9.84;100.00
8298;BME280;4187;42.778;23.242;2023-05-20T03:40:09;95596.03;;;9.88;100.00
8298;BME280;4187;42.778;23.242;2023-05-20T03:42:36;95596.03;;;9.88;100.00
8298;BME280;4187;42.778;23.242;2023-05-20T03:45:04;95594.09;;;9.90;100.00
8298;BME280;4187;42.778;23.242;2023-05-20T03:47:31;95600.34;;;9.89;100.00
8298;BME280;4187;42.778;23.242;2023-05-20T03:49:58;95599.34;;;9.90;100.00
8298;BME280;4187;42.778;23.242;2023-05-20T03:52:25;95606.88;;;9.94;100.00
8298;BME280;4187;42.778;23.242;2023-05-20T03:54:52;95608.00;;;10.01;100.00
8298;BME280;4187;42.778;23.242;2023-05-20T03:57:20;95613.97;;;10.03;100.00
8298;BME280;4187;42.778;23.242;2023-05-20T03:59:47;95623.88;;;10.11;100.00
8298;BME280;4187;42.778;23.242;2023-05-20T04:02:14;95620.72;;;10.17;100.00
8298;BME280;4187;42.778;23.242;2023-05-20T04:04:41;95624.78;;;10.21;100.00
8298;BME280;4187;42.778;23.242;2023-05-20T04:07:08;95615.19;;;10.20;100.00
8298;BME280;4187;42.778;23.242;2023-05-20T04:09:36;95562.34;;;10.01;100.00
8298;BME280;4187;42.778;23.242;2023-05-20T04:12:03;95614.97;;;10.42;100.00
8298;BME280;4187;42.778;23.242;2023-05-20T04:14:32;95620.56;;;10.49;100.00
8298;BME280;4187;42.778;23.242;2023-05-20T04:17:01;95620.28;;;10.61;100.00
8298;BME280;4187;42.778;23.242;2023-05-20T04:19:28;95625.44;;;10.82;100.00
8298;BME280;4187;42.778;23.242;2023-05-20T04:21:55;95618.50;;;10.81;100.00
8298;BME280;4187;42.778;23.242;2023-05-20T04:24:22;95610.28;;;10.74;100.00
8298;BME280;4187;42.778;23.242;2023-05-20T04:26:50;95615.84;;;10.62;100.00
8298;BME280;4187;42.778;23.242;2023-05-20T04:29:17;95624.41;;;10.54;100.00
8298;BME280;4187;42.778;23.242;2023-05-20T04:31:46;95630.97;;;10.50;100.00
8298;BME280;4187;42.778;23.242;2023-05-20T04:34:13;95626.09;;;10.55;100.00
8298;BME280;4187;42.778;23.242;2023-05-20T04:36:44;95622.34;;;10.58;100.00
8298;BME280;4187;42.778;23.242;2023-05-20T04:39:11;95629.59;;;10.65;100.00
8298;BME280;4187;42.778;23.242;2023-05-20T04:41:38;95622.94;;;10.80;100.00
8298;BME280;4187;42.778;23.242;2023-05-20T04:44:05;95626.72;;;10.97;100.00
8298;BME280;4187;42.778;23.242;2023-05-20T04:46:31;95618.50;;;11.10;100.00
8298;BME280;4187;42.778;23.242;2023-05-20T04:49:00;95621.44;;;11.16;100.00
8298;BME280;4187;42.778;23.242;2023-05-20T04:51:28;95629.19;;;11.27;100.00
8298;BME280;4187;42.778;23.242;2023-05-20T04:53:55;95631.69;;;11.38;100.00
8298;BME280;4187;42.778;23.242;2023-05-20T04:56:23;95626.13;;;11.51;100.00
8298;BME280;4187;42.778;23.242;2023-05-20T04:58:50;95633.56;;;11.65;100.00
8298;BME280;4187;42.778;23.242;2023-05-20T05:01:17;95631.06;;;11.83;100.00
8298;BME280;4187;42.778;23.242;2023-05-20T05:03:44;95626.69;;;12.01;100.00
8298;BME280;4187;42.778;23.242;2023-05-20T05:06:12;95631.78;;;12.12;100.00
8298;BME280;4187;42.778;23.242;2023-05-20T05:08:39;95616.56;;;12.24;100.00
8298;BME280;4187;42.778;23.242;2023-05-20T05:11:06;95632.09;;;12.36;100.00
8298;BME280;4187;42.778;23.242;2023-05-20T05:13:32;95633.88;;;12.45;100.00
8298;BME280;4187;42.778;23.242;2023-05-20T05:16:00;95624.03;;;12.65;100.00
8298;BME280;4187;42.778;23.242;2023-05-20T05:18:27;95620.69;;;12.81;100.00
8298;BME280;4187;42.778;23.242;2023-05-20T05:20:58;95625.25;;;12.88;100.00
8298;BME280;4187;42.778;23.242;2023-05-20T05:23:27;95624.47;;;12.96;100.00
8298;BME280;4187;42.778;23.242;2023-05-20T05:25:54;95632.06;;;13.08;100.00
8298;BME280;4187;42.778;23.242;2023-05-20T05:28:21;95627.47;;;13.10;100.00
8298;BME280;4187;42.778;23.242;2023-05-20T05:30:48;95626.97;;;13.25;100.00
8298;BME280;4187;42.778;23.242;2023-05-20T05:33:15;95627.16;;;13.31;100.00
8298;BME280;4187;42.778;23.242;2023-05-20T05:35:42;95612.63;;;13.35;100.00
8298;BME280;4187;42.778;23.242;2023-05-20T05:38:09;95632.19;;;13.60;100.00
8298;BME280;4187;42.778;23.242;2023-05-20T05:40:37;95632.09;;;13.69;100.00
8298;BME280;4187;42.778;23.242;2023-05-20T05:43:04;95628.19;;;13.82;100.00
8298;BME280;4187;42.778;23.242;2023-05-20T05:45:31;95624.59;;;13.91;100.00
8298;BME280;4187;42.778;23.242;2023-05-20T05:47:58;95624.66;;;13.99;100.00
8298;BME280;4187;42.778;23.242;2023-05-20T05:50:25;95633.06;;;14.20;100.00
8298;BME280;4187;42.778;23.242;2023-05-20T05:52:51;95639.31;;;14.36;100.00
8298;BME280;4187;42.778;23.242;2023-05-20T05:55:18;95636.69;;;14.45;100.00
8298;BME280;4187;42.778;23.242;2023-05-20T05:57:47;95640.06;;;14.55;100.00
8298;BME280;4187;42.778;23.242;2023-05-20T06:00:14;95625.50;;;14.67;100.00
8298;BME280;4187;42.778;23.242;2023-05-20T06:02:41;95617.56;;;14.83;100.00
8298;BME280;4187;42.778;23.242;2023-05-20T06:05:08;95626.56;;;14.98;100.00
8298;BME280;4187;42.778;23.242;2023-05-20T06:07:35;95614.31;;;15.05;100.00
8298;BME280;4187;42.778;23.242;2023-05-20T06:10:02;95628.94;;;15.25;100.00
8298;BME280;4187;42.778;23.242;2023-05-20T06:12:29;95624.97;;;15.37;100.00
8298;BME280;4187;42.778;23.242;2023-05-20T06:14:58;95627.81;;;15.60;100.00
8298;BME280;4187;42.778;23.242;2023-05-20T06:17:25;95624.16;;;15.69;100.00
8298;BME280;4187;42.778;23.242;2023-05-20T06:19:52;95630.81;;;15.89;100.00
8298;BME280;4187;42.778;23.242;2023-05-20T06:22:19;95626.25;;;16.06;100.00
8298;BME280;4187;42.778;23.242;2023-05-20T06:24:45;95633.88;;;16.25;100.00
8298;BME280;4187;42.778;23.242;2023-05-20T06:27:12;95628.00;;;16.46;100.00
8298;BME280;4187;42.778;23.242;2023-05-20T06:29:39;95626.91;;;16.71;100.00
8298;BME280;4187;42.778;23.242;2023-05-20T06:32:07;95626.97;;;16.94;100.00
8298;BME280;4187;42.778;23.242;2023-05-20T06:34:34;95619.84;;;17.09;100.00
8298;BME280;4187;42.778;23.242;2023-05-20T06:37:01;95609.41;;;17.30;100.00
8298;BME280;4187;42.778;23.242;2023-05-20T06:39:28;95617.56;;;17.51;100.00
8298;BME280;4187;42.778;23.242;2023-05-20T06:41:55;95616.09;;;17.71;100.00
8298;BME280;4187;42.778;23.242;2023-05-20T06:44:21;95608.97;;;17.86;100.00
8298;BME280;4187;42.778;23.242;2023-05-20T06:46:48;95614.41;;;18.08;100.00
8298;BME280;4187;42.778;23.242;2023-05-20T06:49:16;95617.28;;;18.21;100.00
8298;BME280;4187;42.778;23.242;2023-05-20T06:51:43;95616.75;;;18.40;100.00
8298;BME280;4187;42.778;23.242;2023-05-20T06:54:10;95610.50;;;18.62;100.00
8298;BME280;4187;42.778;23.242;2023-05-20T06:56:37;95608.16;;;18.88;100.00
8298;BME280;4187;42.778;23.242;2023-05-20T06:59:03;95608.81;;;19.11;100.00
8298;BME280;4187;42.778;23.242;2023-05-20T07:01:30;95606.94;;;19.27;100.00
8298;BME280;4187;42.778;23.242;2023-05-20T07:03:57;95594.44;;;19.34;100.00
8298;BME280;4187;42.778;23.242;2023-05-20T07:06:25;95613.72;;;19.65;100.00
8298;BME280;4187;42.778;23.242;2023-05-20T07:08:54;95621.34;;;19.68;100.00
8298;BME280;4187;42.778;23.242;2023-05-20T07:11:21;95609.50;;;19.77;100.00
8298;BME280;4187;42.778;23.242;2023-05-20T07:13:48;95614.78;;;19.92;100.00
8298;BME280;4187;42.778;23.242;2023-05-20T07:16:15;95605.38;;;20.02;100.00
8298;BME280;4187;42.778;23.242;2023-05-20T07:18:42;95602.00;;;20.21;100.00
8298;BME280;4187;42.778;23.242;2023-05-20T07:21:08;95603.13;;;20.34;100.00
8298;BME280;4187;42.778;23.242;2023-05-20T07:23:37;95584.72;;;20.52;100.00
8298;BME280;4187;42.778;23.242;2023-05-20T07:26:04;95602.09;;;20.69;100.00
8298;BME280;4187;42.778;23.242;2023-05-20T07:28:31;95590.19;;;20.78;100.00
8298;BME280;4187;42.778;23.242;2023-05-20T07:30:57;95585.28;;;20.88;100.00
8298;BME280;4187;42.778;23.242;2023-05-20T07:33:24;95592.81;;;21.12;99.31
8298;BME280;4187;42.778;23.242;2023-05-20T07:35:51;95582.75;;;21.34;100.00
8298;BME280;4187;42.778;23.242;2023-05-20T07:38:19;95597.25;;;21.46;93.55
8298;BME280;4187;42.778;23.242;2023-05-20T07:40:47;95587.94;;;21.49;93.41
8298;BME280;4187;42.778;23.242;2023-05-20T07:43:14;95585.66;;;21.45;90.75
8298;BME280;4187;42.778;23.242;2023-05-20T07:45:41;95586.69;;;21.44;91.32
8298;BME280;4187;42.778;23.242;2023-05-20T07:48:08;95579.69;;;21.50;94.21
8298;BME280;4187;42.778;23.242;2023-05-20T07:50:35;95587.97;;;21.75;94.63
8298;BME280;4187;42.778;23.242;2023-05-20T07:53:02;95580.16;;;21.86;92.56
8298;BME280;4187;42.778;23.242;2023-05-20T07:55:29;95591.31;;;22.03;91.31
8298;BME280;4187;42.778;23.242;2023-05-20T07:57:58;95583.44;;;22.01;87.73
8298;BME280;4187;42.778;23.242;2023-05-20T08:00:25;95583.25;;;21.96;89.82
8298;BME280;4187;42.778;23.242;2023-05-20T08:02:51;95592.53;;;22.07;92.50
8298;BME280;4187;42.778;23.242;2023-05-20T08:05:18;95584.28;;;22.22;91.83
8298;BME280;4187;42.778;23.242;2023-05-20T08:07:47;95584.22;;;22.41;93.77
8298;BME280;4187;42.778;23.242;2023-05-20T08:10:14;95581.28;;;22.56;92.74
8298;BME280;4187;42.778;23.242;2023-05-20T08:12:40;95579.78;;;22.80;92.30
8298;BME280;4187;42.778;23.242;2023-05-20T08:15:10;95576.19;;;22.99;92.92
8298;BME280;4187;42.778;23.242;2023-05-20T08:17:37;95570.78;;;23.05;91.41
8298;BME280;4187;42.778;23.242;2023-05-20T08:20:05;95566.66;;;23.03;88.97
8298;BME280;4187;42.778;23.242;2023-05-20T08:22:32;95566.41;;;23.11;89.53
8298;BME280;4187;42.778;23.242;2023-05-20T08:25:00;95570.97;;;23.10;88.29
8298;BME280;4187;42.778;23.242;2023-05-20T08:27:27;95558.34;;;23.04;88.90
8298;BME280;4187;42.778;23.242;2023-05-20T08:29:54;95560.41;;;23.09;87.86
8298;BME280;4187;42.778;23.242;2023-05-20T08:32:22;95561.28;;;23.03;86.54
8298;BME280;4187;42.778;23.242;2023-05-20T08:34:49;95561.72;;;23.00;86.15
8298;BME280;4187;42.778;23.242;2023-05-20T08:37:15;95556.38;;;22.87;86.76
8298;BME280;4187;42.778;23.242;2023-05-20T08:39:42;95573.31;;;23.00;86.14
8298;BME280;4187;42.778;23.242;2023-05-20T08:42:11;95561.22;;;22.65;84.66
8298;BME280;4187;42.778;23.242;2023-05-20T08:44:39;95558.16;;;22.48;84.82
8298;BME280;4187;42.778;23.242;2023-05-20T08:47:07;95562.94;;;22.27;83.67
8298;BME280;4187;42.778;23.242;2023-05-20T08:49:35;95560.22;;;22.33;87.73
8298;BME280;4187;42.778;23.242;2023-05-20T08:52:03;95555.28;;;22.37;84.56
8298;BME280;4187;42.778;23.242;2023-05-20T08:54:39;95573.25;;;22.36;84.79
8298;BME280;4187;42.778;23.242;2023-05-20T08:57:08;95558.16;;;22.48;86.40
8298;BME280;4187;42.778;23.242;2023-05-20T08:59:40;95564.13;;;22.63;84.45
8298;BME280;4187;42.778;23.242;2023-05-20T09:02:08;95553.75;;;22.60;84.07
8298;BME280;4187;42.778;23.242;2023-05-20T09:04:37;95546.09;;;22.57;85.86
8298;BME280;4187;42.778;23.242;2023-05-20T09:07:04;95544.22;;;22.71;86.93
8298;BME280;4187;42.778;23.242;2023-05-20T09:09:32;95542.97;;;23.11;85.43
8298;BME280;4187;42.778;23.242;2023-05-20T09:12:00;95535.66;;;23.25;84.16
8298;BME280;4187;42.778;23.242;2023-05-20T09:14:28;95537.72;;;23.30;82.12
8298;BME280;4187;42.778;23.242;2023-05-20T09:16:54;95538.19;;;23.20;83.29
8298;BME280;4187;42.778;23.242;2023-05-20T09:19:21;95542.03;;;23.44;85.03
8298;BME280;4187;42.778;23.242;2023-05-20T09:21:52;95532.72;;;23.64;83.68
8298;BME280;4187;42.778;23.242;2023-05-20T09:24:22;95527.66;;;23.74;80.47
8298;BME280;4187;42.778;23.242;2023-05-20T09:26:50;95534.16;;;23.92;81.11
8298;BME280;4187;42.778;23.242;2023-05-20T09:29:17;95483.72;;;23.74;80.16
8298;BME280;4187;42.778;23.242;2023-05-20T09:31:46;95522.41;;;23.86;81.00
8298;BME280;4187;42.778;23.242;2023-05-20T09:34:12;95533.06;;;23.99;79.54
8298;BME280;4187;42.778;23.242;2023-05-20T09:36:42;95534.16;;;23.92;81.59
8298;BME280;4187;42.778;23.242;2023-05-20T09:39:13;95529.69;;;24.04;82.13
8298;BME280;4187;42.778;23.242;2023-05-20T09:41:50;95532.22;;;23.99;79.46
8298;BME280;4187;42.778;23.242;2023-05-20T09:44:20;95529.94;;;23.77;78.75
8298;BME280;4187;42.778;23.242;2023-05-20T09:46:47;95528.66;;;23.80;81.80
8298;BME280;4187;42.778;23.242;2023-05-20T09:49:18;95523.38;;;23.92;82.60
8298;BME280;4187;42.778;23.242;2023-05-20T09:51:46;95514.56;;;24.03;78.69
8298;BME280;4187;42.778;23.242;2023-05-20T09:54:17;95514.19;;;23.99;77.91
8298;BME280;4187;42.778;23.242;2023-05-20T09:56:45;95512.59;;;23.92;76.86
8298;BME280;4187;42.778;23.242;2023-05-20T09:59:14;95512.81;;;23.90;77.88
8298;BME280;4187;42.778;23.242;2023-05-20T10:01:43;95509.97;;;24.10;81.37
8298;BME280;4187;42.778;23.242;2023-05-20T10:04:11;95507.91;;;24.05;77.04
8298;BME280;4187;42.778;23.242;2023-05-20T10:06:54;95502.53;;;23.80;79.72
8298;BME280;4187;42.778;23.242;2023-05-20T10:09:38;95508.56;;;24.01;77.02
8298;BME280;4187;42.778;23.242;2023-05-20T10:12:17;95505.31;;;24.17;77.07
8298;BME280;4187;42.778;23.242;2023-05-20T10:14:55;95500.41;;;24.07;75.85
8298;BME280;4187;42.778;23.242;2023-05-20T10:17:31;95474.47;;;24.13;79.48
8298;BME280;4187;42.778;23.242;2023-05-20T10:20:02;95435.69;;;23.89;77.19
8298;BME280;4187;42.778;23.242;2023-05-20T10:22:31;95482.09;;;24.34;77.50
8298;BME280;4187;42.778;23.242;2023-05-20T10:25:04;95465.50;;;24.19;76.23
8298;BME280;4187;42.778;23.242;2023-05-20T10:27:42;95479.66;;;24.32;76.40
8298;BME280;4187;42.778;23.242;2023-05-20T10:30:15;95478.06;;;24.61;74.95
8298;BME280;4187;42.778;23.242;2023-05-20T10:32:48;95478.03;;;24.79;76.88
8298;BME280;4187;42.778;23.242;2023-05-20T10:35:21;95480.72;;;24.98;73.46
8298;BME280;4187;42.778;23.242;2023-05-20T10:37:51;95481.41;;;24.93;72.47
8298;BME280;4187;42.778;23.242;2023-05-20T10:40:21;95479.53;;;24.93;72.76
8298;BME280;4187;42.778;23.242;2023-05-20T10:42:48;95471.84;;;25.09;74.37
8298;BME280;4187;42.778;23.242;2023-05-20T10:45:25;95474.25;;;24.98;72.44
8298;BME280;4187;42.778;23.242;2023-05-20T10:47:53;95463.88;;;24.84;73.21
8298;BME280;4187;42.778;23.242;2023-05-20T10:50:32;95456.38;;;24.86;74.16
8298;BME280;4187;42.778;23.242;2023-05-20T10:53:03;95453.94;;;24.96;74.61
8298;BME280;4187;42.778;23.242;2023-05-20T10:55:36;95448.13;;;25.11;74.06
8298;BME280;4187;42.778;23.242;2023-05-20T10:58:04;95449.63;;;25.07;73.13
8298;BME280;4187;42.778;23.242;2023-05-20T11:00:33;95442.09;;;24.97;73.30
8298;BME280;4187;42.778;23.242;2023-05-20T11:03:01;95449.63;;;24.95;72.84
8298;BME280;4187;42.778;23.242;2023-05-20T11:05:28;95436.78;;;24.90;71.33
8298;BME280;4187;42.778;23.242;2023-05-20T11:08:00;95443.50;;;25.00;71.31
8298;BME280;4187;42.778;23.242;2023-05-20T11:10:27;95442.03;;;25.15;72.44
8298;BME280;4187;42.778;23.242;2023-05-20T11:12:56;95417.59;;;25.10;70.37
8298;BME280;4187;42.778;23.242;2023-05-20T11:15:23;95435.25;;;25.24;74.45
8298;BME280;4187;42.778;23.242;2023-05-20T11:17:51;95424.44;;;25.24;73.73
8298;BME280;4187;42.778;23.242;2023-05-20T11:20:18;95438.66;;;25.31;69.02
8298;BME280;4187;42.778;23.242;2023-05-20T11:22:45;95442.34;;;25.07;69.68
8298;BME280;4187;42.778;23.242;2023-05-20T11:25:12;95436.44;;;24.98;69.18
8298;BME280;4187;42.778;23.242;2023-05-20T11:27:39;95425.56;;;25.05;68.83
8298;BME280;4187;42.778;23.242;2023-05-20T11:30:09;95419.47;;;25.10;71.00
8298;BME280;4187;42.778;23.242;2023-05-20T11:32:36;95415.97;;;25.21;69.35
8298;BME280;4187;42.778;23.242;2023-05-20T11:35:04;95409.78;;;25.32;71.45
8298;BME280;4187;42.778;23.242;2023-05-20T11:37:31;95413.06;;;25.34;71.33
8298;BME280;4187;42.778;23.242;2023-05-20T11:40:06;95396.25;;;25.32;73.90
8298;BME280;4187;42.778;23.242;2023-05-20T11:42:34;95392.28;;;25.46;72.71
8298;BME280;4187;42.778;23.242;2023-05-20T11:45:01;95398.88;;;25.50;72.25
8298;BME280;4187;42.778;23.242;2023-05-20T11:47:29;95403.94;;;25.58;72.84
8298;BME280;4187;42.778;23.242;2023-05-20T11:49:57;95386.78;;;25.52;70.13
8298;BME280;4187;42.778;23.242;2023-05-20T11:52:23;95379.03;;;25.56;69.62
8298;BME280;4187;42.778;23.242;2023-05-20T11:54:51;95399.16;;;25.60;70.18
8298;BME280;4187;42.778;23.242;2023-05-20T11:57:18;95395.84;;;25.58;66.77
8298;BME280;4187;42.778;23.242;2023-05-20T11:59:45;95390.19;;;25.48;67.31
8298;BME280;4187;42.778;23.242;2023-05-20T12:02:12;95377.34;;;25.32;67.27
8298;BME280;4187;42.778;23.242;2023-05-20T12:04:40;95379.69;;;25.28;69.96
8298;BME280;4187;42.778;23.242;2023-05-20T12:07:07;95387.13;;;25.33;68.83
8298;BME280;4187;42.778;23.242;2023-05-20T12:09:34;95368.75;;;25.23;70.72
8298;BME280;4187;42.778;23.242;2023-05-20T12:12:01;95385.44;;;25.32;69.42
8298;BME280;4187;42.778;23.242;2023-05-20T12:14:28;95372.66;;;25.27;69.10
8298;BME280;4187;42.778;23.242;2023-05-20T12:16:55;95370.19;;;25.37;70.05
8298;BME280;4187;42.778;23.242;2023-05-20T12:19:22;95365.03;;;25.47;71.50
8298;BME280;4187;42.778;23.242;2023-05-20T12:21:50;95368.91;;;25.63;72.25
8298;BME280;4187;42.778;23.242;2023-05-20T12:24:17;95383.25;;;25.75;70.00
8298;BME280;4187;42.778;23.242;2023-05-20T12:26:44;95364.81;;;25.72;70.29
8298;BME280;4187;42.778;23.242;2023-05-20T12:29:11;95364.44;;;25.69;72.26
8298;BME280;4187;42.778;23.242;2023-05-20T12:31:38;95381.75;;;25.56;68.59
8298;BME280;4187;42.778;23.242;2023-05-20T12:34:05;95391.09;;;25.30;68.21
8298;BME280;4187;42.778;23.242;2023-05-20T12:36:31;95382.81;;;25.02;69.89
8298;BME280;4187;42.778;23.242;2023-05-20T12:39:00;95379.75;;;24.87;71.28
8298;BME280;4187;42.778;23.242;2023-05-20T12:41:26;95375.38;;;24.56;71.89
8298;BME280;4187;42.778;23.242;2023-05-20T12:43:53;95389.13;;;24.36;72.43
8298;BME280;4187;42.778;23.242;2023-05-20T12:46:20;95396.56;;;24.23;75.34
8298;BME280;4187;42.778;23.242;2023-05-20T12:49:05;95399.38;;;23.92;73.75
8298;BME280;4187;42.778;23.242;2023-05-20T12:51:32;95392.88;;;23.81;70.88
8298;BME280;4187;42.778;23.242;2023-05-20T12:54:00;95393.06;;;23.79;72.46
8298;BME280;4187;42.778;23.242;2023-05-20T12:56:27;95390.69;;;23.90;70.92
8298;BME280;4187;42.778;23.242;2023-05-20T12:58:54;95387.09;;;23.96;72.47
8298;BME280;4187;42.778;23.242;2023-05-20T13:01:22;95391.44;;;23.97;71.15
8298;BME280;4187;42.778;23.242;2023-05-20T13:03:49;95381.69;;;23.77;69.42
8298;BME280;4187;42.778;23.242;2023-05-20T13:06:17;95383.84;;;23.51;70.71
8298;BME280;4187;42.778;23.242;2023-05-20T13:08:44;95375.75;;;23.26;71.63